Verndale, MN

11:39 PM CDT on September 20, 2014 (GMT -0500)
Staples Municipal | Change Station
CLOSE
Current Station
Airport
Location: Staples,
Elevation: 1286 ft
Nearby Weather Stations

Elev 1286 ft 46.38 °N, 94.81 °W | Updated 5 minutes ago

Mostly Cloudy
Mostly Cloudy
54 °F
Feels Like 54 °F
N
8
Wind Variable Wind from NW

Today
High -- | Low -- °F
--% Chance of Precip.
Yesterday
High -- | Low -- °F
Precip. -- in
7:04 AM 7:21 PM
Waning Crescent, 9% visible
Pressure 29.89 in
Visibility 10.0 miles
Clouds Mostly Cloudy 10000 ft
Dew Point 46 °F
Humidity 77%
Rainfall 0.25 in
Snow Depth Not available.
UV 0 out of 12
Pollen 3.20 out of 12
Air Quality Not available.
Flu Activity Not available.
METAR KSAZ 210434Z AUTO 32007KT 10SM BKN100 12/08 A2989 RMK AO2

More Conditions Fewer Conditions

Pressure 29.89 in
Visibility 10.0 miles
Clouds Mostly Cloudy 10000 ft
Dew Point 46 °F
Humidity 77%
Rainfall 0.25 in
Snow Depth Not available.
UV 0 out of 12
Pollen 3.20 out of 12
Air Quality Not available.
Flu Activity Not available.
METAR KSAZ 210434Z AUTO 32007KT 10SM BKN100 12/08 A2989 RMK AO2

More Conditions Fewer Conditions

10-Day Weather Forecast

Almanac

Astronomy

Sep. 20, 2014 Rise Set
Actual Time 7:04 AM CDT 7:21 PM CDT
Civil Twilight 6:34 AM CDT 7:51 PM CDT
Nautical Twilight 5:58 AM CDT 8:27 PM CDT
Astronomical Twilight 5:22 AM CDT 9:03 PM CDT
Moon 3:35 AM CDT (9/20) 5:33 PM CDT (9/20)
Length of Visible Light 13h 17m
Length of Day
12h 17m
Tomorrow will be 3m 16s shorter.
Waning Crescent, 9% of the Moon is Illuminated
Sep 21
Waning Crescent
Sep 24
New
Oct 1
First Quarter
Oct 8
Full
Oct 15
Last Quarter

Yesterday's Extremes

State Highs State Lows

Community

WunderPhotos

Upload Photos

1,755,081 photos uploaded!

Nearby

Snow Depth

Station Depth Elevation
No new snow has been reported.

Earthquake Activity

City Distance Mag. Time & Date
No recent earthquake activity has been reported nearby.
Minimum magnitude displayed is 2.5.

Coastal Water Temperatures

Place Temperature
No Stations Reporting

Nearby Weather Stations